Time;durP1;ratioP1;P1;durP2;ratioP2;P2;SDS_P1;SDS_P2;PMS_P1;PMS_P2;Temp;Humidity;BMP_temperature;BMP_pressure;BME280_temperature;BME280_humidity;BME280_pressure;Samples;Min_cycle;Max_cycle;Signal;HPM_P1;HPM_P2
2022/08/01 00:01:05;;;;;;;15.23;10.95;;;18.40;99.90;;;;;;4935201;29;20055;-72
2022/08/01 00:03:30;;;;;;;12.38;10.02;;;18.40;99.90;;;;;;4938798;29;20131;-72
2022/08/01 00:05:56;;;;;;;13.93;10.75;;;18.40;99.90;;;;;;4924660;29;20063;-72
2022/08/01 00:08:22;;;;;;;17.90;12.38;;;18.40;99.90;;;;;;4930540;29;20126;-72
2022/08/01 00:10:47;;;;;;;18.92;11.60;;;18.40;99.90;;;;;;4929955;29;20481;-72
2022/08/01 00:13:13;;;;;;;13.93;12.02;;;18.40;99.90;;;;;;4932923;29;20553;-72
2022/08/01 00:15:40;;;;;;;14.65;10.02;;;18.40;99.90;;;;;;4916471;29;20176;-72
2022/08/01 00:18:05;;;;;;;14.23;8.57;;;18.40;99.90;;;;;;4931178;29;20056;-71
2022/08/01 00:20:31;;;;;;;12.68;9.52;;;18.30;99.90;;;;;;4930551;29;20655;-72
2022/08/01 00:22:57;;;;;;;13.15;10.10;;;18.40;99.90;;;;;;4914964;29;20043;-72
2022/08/01 00:25:22;;;;;;;14.73;9.52;;;18.40;99.90;;;;;;4915072;29;20039;-72
2022/08/01 00:27:48;;;;;;;14.38;9.68;;;18.40;99.90;;;;;;4915878;29;20052;-72
2022/08/01 00:30:14;;;;;;;14.30;9.75;;;18.40;99.90;;;;;;4932478;29;20040;-72
2022/08/01 00:32:40;;;;;;;13.38;9.05;;;18.40;99.90;;;;;;4930549;29;20780;-72
2022/08/01 00:35:06;;;;;;;8.95;7.97;;;18.40;99.90;;;;;;4923079;29;20457;-72
2022/08/01 00:37:32;;;;;;;14.07;10.13;;;18.30;99.90;;;;;;4917623;29;20111;-72
2022/08/01 00:39:57;;;;;;;12.95;8.90;;;18.30;99.90;;;;;;4932694;29;20091;-72
2022/08/01 00:42:23;;;;;;;10.23;8.45;;;18.30;99.90;;;;;;4931749;29;20039;-72
2022/08/01 00:44:49;;;;;;;9.43;8.15;;;18.30;99.90;;;;;;4931566;29;20126;-72
2022/08/01 00:47:14;;;;;;;11.77;8.98;;;18.30;99.90;;;;;;4932491;29;20051;-72
2022/08/01 00:49:40;;;;;;;11.40;9.07;;;18.30;99.90;;;;;;4935169;29;20043;-72
2022/08/01 00:52:08;;;;;;;10.20;7.85;;;18.30;99.90;;;;;;4917223;29;20123;-72
2022/08/01 00:54:33;;;;;;;10.30;9.10;;;18.30;99.90;;;;;;4928824;29;20050;-72
2022/08/01 00:56:59;;;;;;;12.10;9.88;;;18.30;99.90;;;;;;4915779;29;20150;-72
2022/08/01 00:59:26;;;;;;;13.80;9.45;;;18.30;99.90;;;;;;4914392;29;20091;-71
2022/08/01 01:01:51;;;;;;;18.10;10.65;;;18.30;99.90;;;;;;4933374;29;20058;-71
2022/08/01 01:04:17;;;;;;;18.00;11.30;;;18.30;99.90;;;;;;4931202;29;20051;-72
2022/08/01 01:07:06;;;;;;;11.77;9.75;;;18.30;99.90;;;;;;4931535;29;20421;-72
2022/08/01 01:09:49;;;;;;;18.67;12.30;;;18.30;99.90;;;;;;4915937;29;20044;-72
2022/08/01 01:12:53;;;;;;;12.80;9.63;;;18.30;99.90;;;;;;4912941;29;20158;-72
2022/08/01 01:15:37;;;;;;;14.65;10.60;;;18.30;99.90;;;;;;4919086;29;20409;-72
2022/08/01 01:18:24;;;;;;;18.65;12.35;;;18.30;99.90;;;;;;4918400;29;20059;-72
2022/08/01 01:21:04;;;;;;;;;;;18.20;99.90;;;;;;4922712;29;20074;-72
2022/08/01 01:23:54;;;;;;;15.05;11.45;;;18.20;99.90;;;;;;4919346;29;20490;-72
2022/08/01 01:26:37;;;;;;;12.50;11.02;;;18.20;99.90;;;;;;4949874;29;20059;-72
2022/08/01 01:29:18;;;;;;;9.75;8.48;;;18.20;99.90;;;;;;4929943;29;20062;-72
2022/08/01 01:31:48;;;;;;;12.35;8.85;;;18.10;99.90;;;;;;4927936;29;20412;-72
2022/08/01 01:34:16;;;;;;;14.63;9.00;;;18.10;99.90;;;;;;4932952;29;20420;-72
2022/08/01 01:36:45;;;;;;;23.55;12.15;;;18.10;99.90;;;;;;4932870;29;20063;-72
2022/08/01 01:39:11;;;;;;;12.88;9.98;;;18.10;99.90;;;;;;4924885;29;20056;-72
2022/08/01 01:41:38;;;;;;;9.98;7.47;;;18.10;99.90;;;;;;4931154;29;20051;-72
2022/08/01 01:44:06;;;;;;;9.75;7.72;;;18.10;99.90;;;;;;4930487;29;20051;-72
2022/08/01 01:46:32;;;;;;;11.52;8.00;;;18.10;99.90;;;;;;4914522;29;20043;-72
2022/08/01 01:48:59;;;;;;;7.68;6.85;;;18.10;99.90;;;;;;4933364;29;20513;-72
2022/08/01 01:51:27;;;;;;;8.20;6.80;;;18.10;99.90;;;;;;4912801;29;20043;-72
2022/08/01 01:53:54;;;;;;;;;;;18.10;99.90;;;;;;4914304;29;20059;-72
2022/08/01 01:56:21;;;;;;;11.05;6.53;;;18.00;99.90;;;;;;4930788;29;19974;-72
2022/08/01 01:58:53;;;;;;;8.30;7.43;;;18.00;99.90;;;;;;4930760;29;20055;-73
2022/08/01 02:01:21;;;;;;;9.05;6.68;;;18.00;99.90;;;;;;4935233;29;20115;-73
2022/08/01 02:03:48;;;;;;;;;;;18.10;99.90;;;;;;4931204;29;20102;-73
2022/08/01 02:06:15;;;;;;;18.23;7.27;;;18.10;99.90;;;;;;4925648;29;19922;-72
2022/08/01 02:08:43;;;;;;;8.90;6.93;;;18.00;99.90;;;;;;4932250;29;20298;-72
2022/08/01 02:11:18;;;;;;;13.85;8.23;;;18.10;99.90;;;;;;4924728;29;20091;-72
2022/08/01 02:13:50;;;;;;;9.43;7.05;;;18.10;99.90;;;;;;4931189;29;20055;-73
2022/08/01 02:16:17;;;;;;;9.55;7.68;;;18.10;99.90;;;;;;4929534;29;20472;-73
2022/08/01 02:18:42;;;;;;;9.73;7.00;;;18.10;99.90;;;;;;4923052;29;20048;-73
2022/08/01 02:21:12;;;;;;;10.32;7.10;;;18.10;99.90;;;;;;4925793;29;20047;-72
2022/08/01 02:23:39;;;;;;;9.45;7.45;;;18.10;99.90;;;;;;4930130;29;21021;-73
2022/08/01 02:26:14;;;;;;;8.77;6.90;;;18.10;99.90;;;;;;4911323;29;20130;-72
2022/08/01 02:28:50;;;;;;;7.63;6.82;;;18.00;99.90;;;;;;4922234;29;20502;-73
2022/08/01 02:31:19;;;;;;;7.82;5.80;;;18.00;99.90;;;;;;4928823;29;20052;-72
2022/08/01 02:33:50;;;;;;;6.53;5.38;;;18.00;99.90;;;;;;4906311;29;20055;-72
2022/08/01 02:36:18;;;;;;;8.30;5.47;;;18.00;99.90;;;;;;4935226;29;20115;-72
2022/08/01 02:38:46;;;;;;;9.85;5.20;;;17.90;99.90;;;;;;4913066;29;20577;-72
2022/08/01 02:41:18;;;;;;;9.02;6.30;;;17.90;99.90;;;;;;4909758;29;20040;-72
2022/08/01 02:43:50;;;;;;;6.72;5.90;;;17.90;99.90;;;;;;4915778;29;20055;-72
2022/08/01 02:46:24;;;;;;;9.30;6.15;;;17.80;99.90;;;;;;4933818;29;20122;-72
2022/08/01 02:48:53;;;;;;;9.30;5.70;;;17.80;99.90;;;;;;4916956;29;20479;-72
2022/08/01 02:51:21;;;;;;;9.32;4.78;;;17.80;99.90;;;;;;4933760;29;20050;-72
2022/08/01 02:53:48;;;;;;;14.05;4.60;;;17.80;99.90;;;;;;4917163;29;20051;-72
2022/08/01 02:56:15;;;;;;;11.90;4.95;;;17.80;99.90;;;;;;4932701;29;20052;-72
2022/08/01 02:58:41;;;;;;;8.63;4.55;;;17.80;99.90;;;;;;4933625;29;20043;-72
2022/08/01 03:01:09;;;;;;;9.82;4.65;;;17.80;99.90;;;;;;4917035;29;20051;-72
2022/08/01 03:03:37;;;;;;;7.93;4.43;;;17.80;99.90;;;;;;4933057;29;20497;-72
2022/08/01 03:06:04;;;;;;;7.40;4.57;;;17.80;99.90;;;;;;4925855;29;20553;-72
2022/08/01 03:08:31;;;;;;;5.05;3.72;;;17.80;99.90;;;;;;4936472;29;20182;-72
2022/08/01 03:10:59;;;;;;;15.80;5.20;;;17.70;99.90;;;;;;4933240;29;20412;-72
2022/08/01 03:13:25;;;;;;;;;;;17.70;99.90;;;;;;4934464;29;20532;-73
2022/08/01 03:15:53;;;;;;;5.45;3.85;;;17.70;99.90;;;;;;4917740;29;19926;-73
2022/08/01 03:18:19;;;;;;;11.57;4.70;;;17.60;99.90;;;;;;4934377;29;20097;-72
2022/08/01 03:20:46;;;;;;;7.25;3.67;;;17.60;99.90;;;;;;4900335;29;20130;-72
2022/08/01 03:23:12;;;;;;;7.65;4.03;;;17.70;99.90;;;;;;4932382;29;20058;-72
2022/08/01 03:25:41;;;;;;;5.97;3.90;;;17.60;99.90;;;;;;4933662;29;20043;-73
2022/08/01 03:28:08;;;;;;;10.48;4.35;;;17.60;99.90;;;;;;4934564;29;20043;-72
2022/08/01 03:30:37;;;;;;;4.50;3.65;;;17.60;99.90;;;;;;4916074;29;20048;-72
2022/08/01 03:33:03;;;;;;;8.30;4.38;;;17.60;99.90;;;;;;4913638;29;20533;-72
2022/08/01 03:35:33;;;;;;;5.85;3.63;;;17.60;99.90;;;;;;4918655;29;20067;-72
2022/08/01 03:38:00;;;;;;;7.53;4.40;;;17.60;99.90;;;;;;4929538;29;20151;-72
2022/08/01 03:40:41;;;;;;;11.63;4.07;;;17.60;99.90;;;;;;4934197;29;20501;-72
2022/08/01 03:43:37;;;;;;;10.80;3.30;;;17.60;99.90;;;;;;4916061;29;20064;-72
2022/08/01 03:46:18;;;;;;;10.25;3.97;;;17.50;99.90;;;;;;4914556;29;20088;-72
2022/08/01 03:48:50;;;;;;;8.45;4.47;;;17.50;99.90;;;;;;4930489;29;20051;-72
2022/08/01 03:51:18;;;;;;;6.20;3.53;;;17.50;99.90;;;;;;4916855;29;20059;-72
2022/08/01 03:53:45;;;;;;;8.02;4.15;;;17.50;99.90;;;;;;4916129;29;20154;-72
2022/08/01 03:56:16;;;;;;;8.30;4.43;;;17.40;99.90;;;;;;4916798;29;20058;-73
2022/08/01 03:58:42;;;;;;;10.50;4.22;;;17.40;99.90;;;;;;4934050;29;20457;-73
2022/08/01 04:01:09;;;;;;;7.15;4.47;;;17.40;99.90;;;;;;4933871;29;20087;-73
2022/08/01 04:03:36;;;;;;;8.82;4.03;;;17.40;99.90;;;;;;4932528;29;20134;-73
2022/08/01 04:06:08;;;;;;;13.65;4.72;;;17.30;99.90;;;;;;4933737;29;20469;-72
2022/08/01 04:08:35;;;;;;;12.52;5.38;;;17.40;99.90;;;;;;4933256;29;20138;-72
2022/08/01 04:11:01;;;;;;;15.10;4.72;;;17.30;99.90;;;;;;4933816;29;20562;-72
2022/08/01 04:13:27;;;;;;;7.13;3.92;;;17.30;99.90;;;;;;4917775;29;20106;-72
2022/08/01 04:15:53;;;;;;;9.20;4.18;;;17.30;99.90;;;;;;4904037;29;20048;-73
2022/08/01 04:18:18;;;;;;;9.30;4.70;;;17.30;99.90;;;;;;4906628;29;20044;-73
2022/08/01 04:20:46;;;;;;;12.40;4.50;;;17.30;99.90;;;;;;4928883;29;20413;-73
2022/08/01 04:23:15;;;;;;;9.70;5.25;;;17.30;99.90;;;;;;4926479;29;20047;-72
2022/08/01 04:25:42;;;;;;;8.23;4.78;;;17.30;99.90;;;;;;4934100;29;20054;-73
2022/08/01 04:28:16;;;;;;;8.70;4.72;;;17.30;99.90;;;;;;4911897;29;20045;-72
2022/08/01 04:30:46;;;;;;;14.48;5.38;;;17.30;99.90;;;;;;4919921;29;20055;-73
2022/08/01 04:33:16;;;;;;;9.73;4.57;;;17.30;99.90;;;;;;4910515;29;20106;-73
2022/08/01 04:35:47;;;;;;;9.45;4.93;;;17.30;99.90;;;;;;4913643;29;20048;-73
2022/08/01 04:38:19;;;;;;;8.77;5.28;;;17.30;99.90;;;;;;4913027;29;20050;-73
2022/08/01 04:40:45;;;;;;;13.05;5.70;;;17.30;99.90;;;;;;4908614;29;20052;-73
2022/08/01 04:43:11;;;;;;;12.70;4.95;;;17.30;99.90;;;;;;4911432;29;20060;-73
2022/08/01 04:45:38;;;;;;;10.63;4.95;;;17.30;99.90;;;;;;4910148;29;20051;-72
2022/08/01 04:48:09;;;;;;;14.40;6.00;;;17.30;99.90;;;;;;4910357;29;20135;-72
2022/08/01 04:50:36;;;;;;;12.60;5.43;;;17.30;99.90;;;;;;4926957;29;20060;-73
2022/08/01 04:53:03;;;;;;;14.63;5.43;;;17.30;99.90;;;;;;4913569;29;20052;-73
2022/08/01 04:55:31;;;;;;;10.80;5.22;;;17.20;99.90;;;;;;4914049;29;20059;-73
2022/08/01 04:57:56;;;;;;;15.68;5.60;;;17.20;99.90;;;;;;4913596;29;20056;-69
2022/08/01 05:00:22;;;;;;;11.68;5.63;;;17.30;99.90;;;;;;4914356;29;20067;-69
2022/08/01 05:02:48;;;;;;;8.80;5.82;;;17.20;99.90;;;;;;4912371;29;20039;-68
2022/08/01 05:05:14;;;;;;;19.65;5.20;;;17.20;99.90;;;;;;4913077;29;20044;-69
2022/08/01 05:07:40;;;;;;;16.90;7.35;;;17.20;99.90;;;;;;4914370;29;20056;-68
2022/08/01 05:10:06;;;;;;;11.13;5.10;;;17.20;99.90;;;;;;4911639;29;20044;-68
2022/08/01 05:12:32;;;;;;;19.30;6.90;;;17.20;99.90;;;;;;4911738;29;20048;-69
2022/08/01 05:14:59;;;;;;;12.63;6.25;;;17.20;99.90;;;;;;4910120;29;20092;-69
2022/08/01 05:17:26;;;;;;;16.48;5.90;;;17.10;99.90;;;;;;4909312;29;20099;-69
2022/08/01 05:19:51;;;;;;;22.42;6.32;;;17.10;99.90;;;;;;4911468;29;20044;-69
2022/08/01 05:22:17;;;;;;;16.05;6.00;;;17.10;99.90;;;;;;4911452;29;20418;-68
2022/08/01 05:24:43;;;;;;;10.18;5.47;;;17.00;99.90;;;;;;4910586;29;20123;-67
2022/08/01 05:27:08;;;;;;;14.07;5.88;;;17.00;99.90;;;;;;4915866;29;20063;-68
2022/08/01 05:29:35;;;;;;;21.55;6.55;;;17.00;99.90;;;;;;4930126;29;20104;-68
2022/08/01 05:32:00;;;;;;;17.17;7.18;;;17.00;99.90;;;;;;4930788;29;20042;-69
2022/08/01 05:34:27;;;;;;;12.23;5.78;;;17.00;99.90;;;;;;4928574;29;20047;-69
2022/08/01 05:36:53;;;;;;;20.50;7.18;;;17.00;99.90;;;;;;4920042;29;20044;-68
2022/08/01 05:39:18;;;;;;;16.95;5.75;;;17.00;99.90;;;;;;4911566;29;20047;-70
2022/08/01 05:41:44;;;;;;;14.43;5.55;;;17.00;99.90;;;;;;4913173;29;20445;-68
2022/08/01 05:44:10;;;;;;;16.73;6.18;;;17.00;99.90;;;;;;4926354;29;20040;-68
2022/08/01 05:46:36;;;;;;;12.77;5.60;;;17.00;99.90;;;;;;4924303;29;20130;-68
2022/08/01 05:49:03;;;;;;;16.10;5.90;;;17.00;99.90;;;;;;4912484;29;20131;-68
2022/08/01 05:51:28;;;;;;;11.40;5.95;;;17.00;99.90;;;;;;4930057;29;20043;-68
2022/08/01 05:53:55;;;;;;;25.25;6.55;;;17.00;99.90;;;;;;4919175;29;20106;-68
2022/08/01 05:56:21;;;;;;;24.17;5.75;;;17.00;99.90;;;;;;4930804;29;20051;-68
2022/08/01 05:58:47;;;;;;;20.55;7.25;;;17.00;99.90;;;;;;4931218;29;20063;-69
2022/08/01 06:01:13;;;;;;;14.75;5.85;;;16.90;99.90;;;;;;4929807;29;20051;-69
2022/08/01 06:03:39;;;;;;;17.63;6.20;;;17.00;99.90;;;;;;4942153;29;20043;-69
2022/08/01 06:06:05;;;;;;;24.75;7.25;;;16.90;99.90;;;;;;4931393;29;20048;-69
2022/08/01 06:08:31;;;;;;;16.65;6.68;;;17.00;99.90;;;;;;4920620;29;20058;-69
2022/08/01 06:10:57;;;;;;;16.40;6.18;;;17.00;99.90;;;;;;4921082;29;20040;-69
2022/08/01 06:13:23;;;;;;;23.15;7.15;;;17.10;99.90;;;;;;4912961;29;20048;-70
2022/08/01 06:15:49;;;;;;;20.13;5.50;;;17.00;99.90;;;;;;4924035;29;20122;-69
2022/08/01 06:18:15;;;;;;;26.45;7.93;;;17.00;99.90;;;;;;4941062;29;20050;-70
2022/08/01 06:20:41;;;;;;;42.83;8.10;;;17.00;99.90;;;;;;4937914;29;20079;-69
2022/08/01 06:23:06;;;;;;;27.63;6.63;;;17.00;99.90;;;;;;4929480;29;20083;-70
2022/08/01 06:25:33;;;;;;;17.02;6.72;;;17.10;99.90;;;;;;4932460;29;20040;-70
2022/08/01 06:27:59;;;;;;;21.23;7.60;;;17.10;99.90;;;;;;4929674;29;20146;-69
2022/08/01 06:30:25;;;;;;;31.10;7.95;;;17.10;99.90;;;;;;4929600;29;20793;-68
2022/08/01 06:32:50;;;;;;;26.45;7.82;;;17.10;99.90;;;;;;4930124;29;20106;-69
2022/08/01 06:35:16;;;;;;;22.52;8.15;;;17.10;99.90;;;;;;4930456;29;20051;-69
2022/08/01 06:37:42;;;;;;;23.25;7.18;;;17.10;99.90;;;;;;4913084;29;20047;-73
2022/08/01 06:40:12;;;;;;;24.58;8.20;;;17.10;99.90;;;;;;4911419;29;20043;-74
2022/08/01 06:42:37;;;;;;;30.08;6.90;;;17.10;99.90;;;;;;4912102;29;20505;-80
2022/08/01 06:45:07;;;;;;;21.80;6.57;;;17.10;99.90;;;;;;4911870;29;20123;-73
2022/08/01 06:47:32;;;;;;;15.35;6.90;;;17.20;99.90;;;;;;4911848;29;20449;-72
2022/08/01 06:49:58;;;;;;;21.65;7.25;;;17.20;99.90;;;;;;4918390;29;20043;-72
2022/08/01 06:52:24;;;;;;;23.77;6.78;;;17.20;99.90;;;;;;4913517;29;20048;-72
2022/08/01 06:54:50;;;;;;;17.40;7.05;;;17.30;99.90;;;;;;4919486;29;20054;-72
2022/08/01 06:57:16;;;;;;;22.75;7.22;;;17.30;99.90;;;;;;4926408;29;20039;-72
2022/08/01 06:59:41;;;;;;;19.77;6.53;;;17.30;99.90;;;;;;4933134;29;20114;-72
2022/08/01 07:02:07;;;;;;;25.40;6.78;;;17.30;99.90;;;;;;4932525;29;20420;-72
2022/08/01 07:04:34;;;;;;;32.67;7.43;;;17.30;99.90;;;;;;4929375;29;20044;-72
2022/08/01 07:07:00;;;;;;;18.95;6.60;;;17.30;99.90;;;;;;4902423;29;20056;-72
2022/08/01 07:09:26;;;;;;;20.42;7.75;;;17.30;99.90;;;;;;4924754;29;20043;-72
2022/08/01 07:11:52;;;;;;;21.75;6.68;;;17.30;99.90;;;;;;4910150;29;20107;-72
2022/08/01 07:14:19;;;;;;;25.65;6.15;;;17.30;99.90;;;;;;4911613;29;20071;-72
2022/08/01 07:16:45;;;;;;;14.23;6.20;;;17.30;99.90;;;;;;4904087;29;20048;-72
2022/08/01 07:19:10;;;;;;;14.50;6.82;;;17.30;99.90;;;;;;4911069;29;20043;-72
2022/08/01 07:21:36;;;;;;;19.23;8.05;;;17.30;99.90;;;;;;4929044;29;20059;-71
2022/08/01 07:24:02;;;;;;;17.52;6.55;;;17.30;99.90;;;;;;4920708;29;20051;-71
2022/08/01 07:26:28;;;;;;;16.80;6.15;;;17.30;99.90;;;;;;4935423;29;20043;-71
2022/08/01 07:28:57;;;;;;;29.92;8.73;;;17.40;99.90;;;;;;4922506;29;20071;-71
2022/08/01 07:31:23;;;;;;;29.30;6.78;;;17.40;99.90;;;;;;4907383;29;20134;-71
2022/08/01 07:33:50;;;;;;;18.13;6.60;;;17.50;99.90;;;;;;4917298;29;20074;-71
2022/08/01 07:36:17;;;;;;;13.57;5.80;;;17.40;99.90;;;;;;4933137;29;20043;-71
2022/08/01 07:38:43;;;;;;;28.70;8.15;;;17.40;99.90;;;;;;4917037;29;20059;-71
2022/08/01 07:41:09;;;;;;;26.52;7.20;;;17.40;99.90;;;;;;4934500;29;20047;-71
2022/08/01 07:43:35;;;;;;;23.73;6.90;;;17.50;99.90;;;;;;4917763;29;20055;-71
2022/08/01 07:46:02;;;;;;;19.08;6.78;;;17.50;99.90;;;;;;4916074;29;20494;-71
2022/08/01 07:48:28;;;;;;;27.10;7.63;;;17.60;99.90;;;;;;4934167;29;20048;-71
2022/08/01 07:50:54;;;;;;;22.25;6.95;;;17.60;99.90;;;;;;4916831;29;20063;-71
2022/08/01 07:53:19;;;;;;;23.40;7.63;;;17.50;99.90;;;;;;4933509;29;20440;-71
2022/08/01 07:55:45;;;;;;;16.33;6.65;;;17.50;99.90;;;;;;4934424;29;20048;-71
2022/08/01 07:58:11;;;;;;;20.42;6.80;;;17.60;99.90;;;;;;4932030;29;20056;-70
2022/08/01 08:00:37;;;;;;;26.48;7.70;;;17.60;99.90;;;;;;4947376;29;20154;-70
2022/08/01 08:03:03;;;;;;;15.73;6.60;;;17.60;99.90;;;;;;4924840;29;20050;-70
2022/08/01 08:05:29;;;;;;;27.02;8.23;;;17.70;99.90;;;;;;4912659;29;20044;-73
2022/08/01 08:07:55;;;;;;;31.23;8.05;;;17.70;99.90;;;;;;4915854;29;20051;-74
2022/08/01 08:10:21;;;;;;;19.80;6.53;;;17.80;99.90;;;;;;4912673;29;20059;-75
2022/08/01 08:12:48;;;;;;;32.88;7.43;;;17.90;99.90;;;;;;4922763;29;20062;-75
2022/08/01 08:15:13;;;;;;;26.20;7.17;;;17.90;99.90;;;;;;4916283;29;20438;-76
2022/08/01 08:17:39;;;;;;;20.88;6.38;;;18.00;99.90;;;;;;4915253;29;20063;-75
2022/08/01 08:20:06;;;;;;;13.98;5.63;;;18.10;99.90;;;;;;4914511;29;20055;-74
2022/08/01 08:22:33;;;;;;;22.42;6.15;;;18.10;99.90;;;;;;4913568;29;20086;-73
2022/08/01 08:24:59;;;;;;;12.75;5.53;;;18.10;99.90;;;;;;4921320;29;20091;-74
2022/08/01 08:27:25;;;;;;;17.42;6.65;;;18.10;99.90;;;;;;4932796;29;20059;-73
2022/08/01 08:29:50;;;;;;;18.25;6.30;;;18.10;99.90;;;;;;4916890;29;20695;-73
2022/08/01 08:32:16;;;;;;;19.27;5.30;;;18.10;99.90;;;;;;4922498;29;20130;-71
2022/08/01 08:34:42;;;;;;;28.80;7.60;;;18.20;99.90;;;;;;4939078;29;20137;-73
2022/08/01 08:37:08;;;;;;;19.42;7.45;;;18.20;99.90;;;;;;4916050;29;20047;-74
2022/08/01 08:39:34;;;;;;;14.52;5.85;;;18.20;99.90;;;;;;4906049;29;20099;-73
2022/08/01 08:42:01;;;;;;;13.90;5.55;;;18.30;99.90;;;;;;4914997;29;20051;-74
2022/08/01 08:44:28;;;;;;;12.85;5.88;;;18.30;99.90;;;;;;4915472;29;20493;-72
2022/08/01 08:46:55;;;;;;;24.95;6.15;;;18.40;99.90;;;;;;4932046;29;20066;-72
2022/08/01 08:49:29;;;;;;;17.55;6.82;;;18.50;99.90;;;;;;4931982;29;20036;-72
2022/08/01 08:52:00;;;;;;;13.18;5.18;;;18.50;99.90;;;;;;4915699;29;20090;-73
2022/08/01 08:54:27;;;;;;;18.95;5.72;;;18.60;99.90;;;;;;4930346;29;20044;-72
2022/08/01 08:56:54;;;;;;;17.63;5.00;;;18.70;99.90;;;;;;4912108;29;20086;-73
2022/08/01 08:59:20;;;;;;;12.40;5.72;;;18.80;99.90;;;;;;4912008;29;20060;-72
2022/08/01 09:01:48;;;;;;;22.90;6.38;;;18.80;99.90;;;;;;4916004;29;20079;-72
2022/08/01 09:04:14;;;;;;;15.65;5.20;;;18.90;99.90;;;;;;4933024;29;20048;-72
2022/08/01 09:06:40;;;;;;;17.35;6.45;;;19.20;99.90;;;;;;4932275;29;20099;-72
2022/08/01 09:09:08;;;;;;;13.80;5.20;;;19.50;99.90;;;;;;4915257;29;20063;-71
2022/08/01 09:11:34;;;;;;;16.65;5.63;;;19.80;99.90;;;;;;4939088;29;20512;-72
2022/08/01 09:14:10;;;;;;;13.98;4.65;;;20.00;99.90;;;;;;4915094;29;20461;-71
2022/08/01 09:16:39;;;;;;;14.43;4.95;;;20.30;99.90;;;;;;4916002;29;20044;-71
2022/08/01 09:19:14;;;;;;;13.35;5.55;;;20.50;99.90;;;;;;4931759;29;20067;-71
2022/08/01 09:21:55;;;;;;;11.48;4.65;;;20.60;99.90;;;;;;4912383;29;20053;-71
2022/08/01 09:24:21;;;;;;;14.93;5.15;;;20.80;99.90;;;;;;4929863;29;20138;-71
2022/08/01 09:26:48;;;;;;;18.33;5.85;;;20.90;99.90;;;;;;4936972;29;20122;-71
2022/08/01 09:29:29;;;;;;;12.35;4.57;;;21.10;99.90;;;;;;4932089;29;20505;-71
2022/08/01 09:31:56;;;;;;;13.52;4.45;;;21.20;99.90;;;;;;4920806;29;20042;-71
2022/08/01 09:34:32;;;;;;;15.20;5.05;;;21.10;99.90;;;;;;4913586;29;20055;-71
2022/08/01 09:37:02;;;;;;;13.32;4.07;;;21.20;99.90;;;;;;4914121;29;20167;-71
2022/08/01 09:39:36;;;;;;;15.90;5.95;;;21.30;99.90;;;;;;4931102;29;20048;-71
2022/08/01 09:42:20;;;;;;;14.23;4.93;;;21.50;99.90;;;;;;4931478;29;20171;-71
2022/08/01 09:44:46;;;;;;;23.60;4.97;;;21.60;99.90;;;;;;4906696;29;20055;-71
2022/08/01 09:47:13;;;;;;;11.40;3.78;;;21.80;99.90;;;;;;4930373;29;20078;-71
2022/08/01 09:49:40;;;;;;;9.32;4.38;;;21.80;99.90;;;;;;4913969;29;20048;-72
2022/08/01 09:52:16;;;;;;;25.48;4.68;;;21.80;99.90;;;;;;4931222;29;20371;-72
2022/08/01 09:54:43;;;;;;;74.05;11.23;;;22.00;99.90;;;;;;4930259;29;20066;-73
2022/08/01 09:57:14;;;;;;;41.90;6.53;;;22.00;99.90;;;;;;4915360;29;20067;-73
2022/08/01 09:59:43;;;;;;;9.65;4.18;;;22.10;99.90;;;;;;4929450;29;20114;-73
2022/08/01 10:02:15;;;;;;;12.57;3.50;;;22.20;99.90;;;;;;4916225;29;20122;-72
2022/08/01 10:04:51;;;;;;;13.98;4.65;;;22.10;99.90;;;;;;4915028;29;20048;-72
2022/08/01 10:07:18;;;;;;;12.48;4.85;;;22.10;99.90;;;;;;4931445;29;20054;-74
2022/08/01 10:09:45;;;;;;;15.18;5.32;;;22.00;99.90;;;;;;4906976;29;20064;-72
2022/08/01 10:12:13;;;;;;;10.43;4.65;;;21.90;99.90;;;;;;4922161;29;20131;-73
2022/08/01 10:14:39;;;;;;;14.38;4.15;;;22.10;99.90;;;;;;4903156;29;20043;-72
2022/08/01 10:17:08;;;;;;;9.27;3.90;;;22.20;99.90;;;;;;4931442;29;20046;-72
2022/08/01 10:19:35;;;;;;;18.77;3.80;;;22.30;99.90;;;;;;4907683;29;20398;-74
2022/08/01 10:22:04;;;;;;;11.50;3.53;;;22.20;99.90;;;;;;4919400;29;20044;-76
2022/08/01 10:24:30;;;;;;;10.60;3.63;;;22.30;99.90;;;;;;4911919;29;20079;-77
2022/08/01 10:27:03;;;;;;;14.90;4.10;;;22.30;99.90;;;;;;4905212;29;20047;-78
2022/08/01 10:29:35;;;;;;;10.90;4.93;;;22.40;99.90;;;;;;4915168;29;20091;-78
2022/08/01 10:32:01;;;;;;;9.00;3.28;;;22.10;99.90;;;;;;4906425;29;20059;-77
2022/08/01 10:34:29;;;;;;;8.85;3.30;;;22.10;99.90;;;;;;4930124;29;20102;-78
2022/08/01 10:36:55;;;;;;;9.10;3.53;;;22.10;99.90;;;;;;4915151;29;20054;-77
2022/08/01 10:39:21;;;;;;;11.27;4.30;;;22.30;99.90;;;;;;4919581;29;20130;-77
2022/08/01 10:41:48;;;;;;;10.63;3.53;;;22.50;99.90;;;;;;4913785;29;20056;-77
2022/08/01 10:44:14;;;;;;;11.05;4.20;;;22.40;99.90;;;;;;4913027;29;20066;-78
2022/08/01 10:46:46;;;;;;;13.07;4.20;;;22.30;99.90;;;;;;4928296;29;20048;-79
2022/08/01 10:49:15;;;;;;;6.45;3.28;;;22.40;99.90;;;;;;4924606;29;20048;-77
2022/08/01 10:51:41;;;;;;;8.90;3.40;;;22.30;99.90;;;;;;4920148;29;20044;-79
2022/08/01 10:54:10;;;;;;;16.55;3.63;;;22.50;99.90;;;;;;4910174;29;20521;-79
2022/08/01 10:56:56;;;;;;;11.18;3.75;;;22.40;99.90;;;;;;4930864;29;20055;-77
2022/08/01 10:59:27;;;;;;;9.00;4.00;;;22.60;99.90;;;;;;4930158;29;20638;-79
2022/08/01 11:02:04;;;;;;;14.23;3.55;;;22.60;99.90;;;;;;4922511;29;20103;-79
2022/08/01 11:04:49;;;;;;;10.57;3.92;;;22.90;99.90;;;;;;4918780;29;20059;-78
2022/08/01 11:07:23;;;;;;;12.68;3.53;;;22.90;99.90;;;;;;4925690;29;20058;-79
2022/08/01 11:10:10;;;;;;;11.45;3.65;;;22.80;99.90;;;;;;4925449;29;20043;-79
2022/08/01 11:12:42;;;;;;;10.67;3.60;;;22.70;99.90;;;;;;4904991;29;20051;-78
2022/08/01 11:15:11;;;;;;;8.85;3.70;;;22.80;99.90;;;;;;4930638;29;20804;-78
2022/08/01 11:17:41;;;;;;;7.22;2.50;;;22.90;99.90;;;;;;4932645;29;20051;-78
2022/08/01 11:20:16;;;;;;;8.43;3.55;;;22.90;99.90;;;;;;4917227;29;20058;-79
2022/08/01 11:23:00;;;;;;;7.75;2.63;;;22.90;99.90;;;;;;4935866;29;20047;-78
2022/08/01 11:25:48;;;;;;;11.73;2.33;;;22.90;99.90;;;;;;4935819;29;20131;-78
2022/08/01 11:28:13;;;;;;;8.00;3.40;;;22.90;99.90;;;;;;4923534;29;20055;-77
2022/08/01 11:30:48;;;;;;;8.82;2.85;;;22.80;99.90;;;;;;4914386;29;20095;-77
2022/08/01 11:33:15;;;;;;;5.93;2.63;;;22.80;99.90;;;;;;4920794;29;20051;-77
2022/08/01 11:36:12;;;;;;;7.47;3.10;;;22.70;99.90;;;;;;4924469;29;20052;-74
2022/08/01 11:38:38;;;;;;;8.10;2.75;;;22.70;99.90;;;;;;4916528;29;20480;-78
2022/08/01 11:41:16;;;;;;;10.48;3.63;;;22.70;99.90;;;;;;4914850;29;20132;-77
2022/08/01 11:44:05;;;;;;;6.47;2.97;;;22.70;99.90;;;;;;4922054;29;20524;-76
2022/08/01 11:46:50;;;;;;;6.35;3.10;;;22.60;99.90;;;;;;4912840;29;20047;-76
2022/08/01 11:49:36;;;;;;;9.52;2.83;;;22.60;99.90;;;;;;4932419;29;20052;-77
2022/08/01 11:52:10;;;;;;;8.10;3.47;;;22.50;99.90;;;;;;4916975;29;20090;-75
2022/08/01 11:54:50;;;;;;;9.98;3.17;;;22.60;99.90;;;;;;4917705;29;20398;-76
2022/08/01 11:57:26;;;;;;;5.55;2.88;;;22.70;99.90;;;;;;4917213;29;20049;-78
2022/08/01 11:59:57;;;;;;;8.85;2.65;;;22.80;99.90;;;;;;4917726;29;20066;-78
2022/08/01 12:02:26;;;;;;;10.52;2.97;;;22.70;99.90;;;;;;4914995;29;20130;-76
2022/08/01 12:05:05;;;;;;;10.95;3.33;;;22.80;99.90;;;;;;4922472;29;20056;-77
2022/08/01 12:07:32;;;;;;;10.40;2.70;;;22.80;99.90;;;;;;4929976;29;20102;-75
2022/08/01 12:10:00;;;;;;;11.43;3.30;;;22.80;99.90;;;;;;4928447;29;20047;-75
2022/08/01 12:12:27;;;;;;;5.95;2.65;;;22.80;99.90;;;;;;4916710;29;20055;-75
2022/08/01 12:14:57;;;;;;;9.57;3.25;;;22.80;99.90;;;;;;4913290;29;20131;-75
2022/08/01 12:17:37;;;;;;;10.77;3.10;;;22.90;99.90;;;;;;4930621;29;20135;-76
2022/08/01 12:20:05;;;;;;;12.02;3.78;;;22.90;99.90;;;;;;4926585;29;20118;-75
2022/08/01 12:22:31;;;;;;;11.05;3.05;;;22.70;99.90;;;;;;4918918;29;20043;-75
2022/08/01 12:25:11;;;;;;;5.28;2.42;;;22.70;99.90;;;;;;4915943;29;20118;-77
2022/08/01 12:27:39;;;;;;;5.78;2.33;;;22.70;99.90;;;;;;4915711;29;20065;-76
2022/08/01 12:30:07;;;;;;;8.10;2.45;;;22.70;99.90;;;;;;4919534;29;20058;-77
2022/08/01 12:32:36;;;;;;;6.68;2.15;;;22.90;99.90;;;;;;4936175;29;20054;-75
2022/08/01 12:35:04;;;;;;;6.07;2.53;;;23.00;99.90;;;;;;4918155;29;20094;-76
2022/08/01 12:37:30;;;;;;;13.23;2.63;;;23.10;99.90;;;;;;4919019;29;20051;-75
2022/08/01 12:39:57;;;;;;;8.75;2.53;;;23.00;99.90;;;;;;4929976;29;20495;-75
2022/08/01 12:42:24;;;;;;;5.43;2.20;;;22.90;99.90;;;;;;4934251;29;20059;-75
2022/08/01 12:44:51;;;;;;;7.82;3.45;;;23.00;99.90;;;;;;4912516;29;20052;-75
2022/08/01 12:47:18;;;;;;;;;;;22.90;99.90;;;;;;4916007;29;20066;-76
2022/08/01 12:49:45;;;;;;;9.70;3.58;;;22.80;99.90;;;;;;4915376;29;20750;-78